Time;durP1;ratioP1;P1;durP2;ratioP2;P2;SDS_P1;SDS_P2;PMS_P1;PMS_P2;Temp;Humidity;BMP_temperature;BMP_pressure;BME280_temperature;BME280_humidity;BME280_pressure;Samples;Min_cycle;Max_cycle;Signal;HPM_P1;HPM_P2
2023/05/27 00:01:56;;;;;;;16.67;4.57;;;8.50;99.90;;;;;;5062423;27;20440;-74
2023/05/27 00:04:43;;;;;;;12.77;4.10;;;8.50;99.90;;;;;;5056329;27;20201;-75
2023/05/27 00:07:31;;;;;;;12.17;4.57;;;8.40;99.90;;;;;;5082021;27;20565;-76
2023/05/27 00:10:20;;;;;;;12.77;4.70;;;8.50;99.90;;;;;;5074649;27;20193;-75
2023/05/27 00:13:07;;;;;;;11.80;4.00;;;8.40;99.90;;;;;;5054742;27;20643;-76
2023/05/27 00:15:55;;;;;;;16.63;4.20;;;8.50;99.90;;;;;;5054546;27;20273;-75
2023/05/27 00:18:42;;;;;;;14.30;4.07;;;8.40;99.90;;;;;;5077118;27;20257;-75
2023/05/27 00:21:29;;;;;;;9.80;4.00;;;8.40;99.90;;;;;;5054125;27;20204;-75
2023/05/27 00:24:17;;;;;;;14.20;4.53;;;8.50;99.90;;;;;;5050634;27;20227;-75
2023/05/27 00:27:05;;;;;;;15.13;3.83;;;8.50;99.90;;;;;;5074884;27;20647;-76
2023/05/27 00:29:53;;;;;;;17.63;4.37;;;8.50;99.90;;;;;;5077065;27;20201;-74
2023/05/27 00:32:40;;;;;;;16.27;3.87;;;8.60;99.90;;;;;;5084028;27;20717;-74
2023/05/27 00:35:27;;;;;;;15.73;3.87;;;8.60;99.90;;;;;;5081115;27;20204;-75
2023/05/27 00:38:14;;;;;;;11.83;4.37;;;8.70;99.90;;;;;;5083858;27;20236;-75
2023/05/27 00:41:02;;;;;;;10.63;3.97;;;8.70;99.90;;;;;;5076254;27;20243;-75
2023/05/27 00:43:51;;;;;;;19.83;4.10;;;8.70;99.90;;;;;;5083593;27;20284;-75
2023/05/27 00:46:38;;;;;;;21.07;4.17;;;8.70;99.90;;;;;;5053920;27;20201;-75
2023/05/27 00:49:26;;;;;;;15.73;4.13;;;8.80;99.90;;;;;;5053992;27;20490;-75
2023/05/27 00:52:14;;;;;;;16.30;3.87;;;8.90;99.90;;;;;;5099830;27;20212;-75
2023/05/27 00:55:01;;;;;;;14.17;4.27;;;8.80;99.90;;;;;;5068113;27;20249;-75
2023/05/27 00:57:48;;;;;;;13.97;4.10;;;8.80;99.90;;;;;;5054920;27;20205;-75
2023/05/27 01:00:38;;;;;;;15.10;4.40;;;8.80;99.90;;;;;;5048984;27;20734;-75
2023/05/27 01:03:25;;;;;;;20.50;4.10;;;8.70;99.90;;;;;;5078585;27;20288;-75
2023/05/27 01:06:18;;;;;;;19.43;4.60;;;8.80;99.90;;;;;;5072002;27;20201;-75
2023/05/27 01:09:09;;;;;;;16.17;4.27;;;8.80;99.90;;;;;;5061016;27;20683;-75
2023/05/27 01:11:59;;;;;;;15.03;4.00;;;8.80;99.90;;;;;;5057384;27;20237;-75
2023/05/27 01:14:46;;;;;;;15.00;4.17;;;8.80;99.90;;;;;;5048094;27;20205;-76
2023/05/27 01:17:37;;;;;;;22.57;4.50;;;8.90;99.90;;;;;;5073066;27;20231;-75
2023/05/27 01:20:25;;;;;;;17.97;4.33;;;8.90;99.90;;;;;;5070997;27;20303;-75
2023/05/27 01:23:13;;;;;;;22.50;4.23;;;8.90;99.90;;;;;;5055284;27;20470;-75
2023/05/27 01:26:00;;;;;;;16.57;4.37;;;8.90;99.90;;;;;;5068432;27;20316;-75
2023/05/27 01:28:48;;;;;;;13.93;3.90;;;8.80;99.90;;;;;;5089049;27;20284;-75
2023/05/27 01:31:39;;;;;;;15.47;4.33;;;8.80;99.90;;;;;;5058667;27;20233;-75
2023/05/27 01:34:29;;;;;;;18.53;4.13;;;8.70;99.90;;;;;;5044344;27;20247;-75
2023/05/27 01:37:17;;;;;;;19.63;4.60;;;8.70;99.90;;;;;;5078097;27;20225;-75
2023/05/27 01:40:08;;;;;;;12.83;4.03;;;8.70;99.90;;;;;;5072780;27;20189;-75
2023/05/27 01:42:55;;;;;;;16.30;4.60;;;8.70;99.90;;;;;;5066435;27;20315;-75
2023/05/27 01:45:42;;;;;;;16.07;4.37;;;8.80;99.90;;;;;;5050124;27;20201;-76
2023/05/27 01:48:29;;;;;;;18.80;4.60;;;8.90;99.90;;;;;;5066740;27;20200;-75
2023/05/27 01:51:16;;;;;;;16.40;4.30;;;8.90;99.90;;;;;;5050991;27;20256;-75
2023/05/27 01:54:04;;;;;;;17.80;4.13;;;8.90;99.90;;;;;;5053199;27;20204;-74
2023/05/27 01:56:53;;;;;;;15.50;4.73;;;8.80;99.90;;;;;;5057311;27;20217;-75
2023/05/27 01:59:40;;;;;;;18.83;4.40;;;8.90;99.90;;;;;;5098272;27;20217;-76
2023/05/27 02:02:27;;;;;;;18.03;4.47;;;8.80;99.90;;;;;;5075470;27;20201;-75
2023/05/27 02:05:15;;;;;;;18.80;4.47;;;8.90;99.90;;;;;;5060643;27;20206;-76
2023/05/27 02:08:02;;;;;;;16.53;4.40;;;8.90;99.90;;;;;;5051065;27;20205;-75
2023/05/27 02:10:49;;;;;;;13.10;4.03;;;8.90;99.90;;;;;;5090503;27;20670;-75
2023/05/27 02:13:38;;;;;;;22.50;4.90;;;8.90;99.90;;;;;;5076979;27;20240;-75
2023/05/27 02:16:25;;;;;;;17.67;4.93;;;9.00;99.90;;;;;;5064604;27;20733;-74
2023/05/27 02:19:13;;;;;;;17.13;4.23;;;9.10;99.90;;;;;;5059763;27;20219;-74
2023/05/27 02:22:01;;;;;;;16.93;3.70;;;9.20;99.90;;;;;;5051768;27;20576;-74
2023/05/27 02:24:48;;;;;;;11.87;4.03;;;9.20;99.90;;;;;;5092474;27;20233;-74
2023/05/27 02:27:35;;;;;;;17.00;4.17;;;9.30;99.90;;;;;;5063985;27;20201;-75
2023/05/27 02:30:24;;;;;;;16.40;4.03;;;9.40;99.90;;;;;;5055056;27;20287;-75
2023/05/27 02:33:11;;;;;;;15.90;4.37;;;9.50;99.90;;;;;;5067808;27;20202;-76
2023/05/27 02:35:58;;;;;;;14.87;3.90;;;9.60;99.90;;;;;;5083354;27;20209;-75
2023/05/27 02:38:45;;;;;;;21.07;4.20;;;9.70;99.90;;;;;;5047610;27;20202;-75
2023/05/27 02:41:33;;;;;;;13.90;3.83;;;9.70;99.90;;;;;;5062783;27;20309;-75
2023/05/27 02:44:20;;;;;;;15.63;3.93;;;9.70;99.90;;;;;;5055312;27;20693;-76
2023/05/27 02:47:09;;;;;;;15.43;3.53;;;9.60;99.90;;;;;;5066605;27;20245;-75
2023/05/27 02:49:56;;;;;;;20.33;4.40;;;9.70;99.90;;;;;;5073420;27;20318;-75
2023/05/27 02:52:43;;;;;;;17.93;4.20;;;9.70;99.90;;;;;;5060244;27;20284;-75
2023/05/27 02:55:30;;;;;;;18.53;3.80;;;9.70;99.90;;;;;;5052717;27;20196;-75
2023/05/27 02:58:18;;;;;;;12.33;3.50;;;9.70;99.90;;;;;;5085730;27;20239;-75
2023/05/27 03:01:05;;;;;;;18.50;3.70;;;9.70;99.90;;;;;;5065635;27;20234;-75
2023/05/27 03:03:53;;;;;;;17.90;3.93;;;9.70;99.90;;;;;;5054592;27;20215;-75
2023/05/27 03:06:41;;;;;;;19.00;3.83;;;9.70;99.90;;;;;;5054195;27;20649;-76
2023/05/27 03:09:28;;;;;;;17.63;4.67;;;9.60;99.90;;;;;;5082197;27;20224;-75
2023/05/27 03:12:15;;;;;;;18.83;3.80;;;9.60;99.90;;;;;;5080853;27;20577;-75
2023/05/27 03:15:03;;;;;;;22.40;4.33;;;9.60;99.90;;;;;;5058074;27;20288;-75
2023/05/27 03:17:50;;;;;;;22.07;4.00;;;9.60;99.90;;;;;;5055779;27;20634;-75
2023/05/27 03:20:38;;;;;;;14.83;3.87;;;9.50;99.90;;;;;;5098209;27;20674;-75
2023/05/27 03:23:26;;;;;;;18.63;4.03;;;9.60;99.90;;;;;;5071480;27;20204;-75
2023/05/27 03:26:13;;;;;;;13.93;3.50;;;9.60;99.90;;;;;;5057495;27;20651;-75
2023/05/27 03:29:00;;;;;;;12.83;4.50;;;9.60;99.90;;;;;;5056047;27;20205;-75
2023/05/27 03:31:47;;;;;;;22.77;3.80;;;9.60;99.90;;;;;;5079024;27;20679;-75
2023/05/27 03:34:34;;;;;;;14.63;3.80;;;9.60;99.90;;;;;;5073327;27;20215;-74
2023/05/27 03:37:23;;;;;;;14.17;4.23;;;9.60;99.90;;;;;;5062303;27;20224;-74
2023/05/27 03:40:11;;;;;;;21.17;4.07;;;9.60;99.90;;;;;;5076607;27;20645;-75
2023/05/27 03:42:59;;;;;;;14.03;4.07;;;9.50;99.90;;;;;;5063000;27;20206;-75
2023/05/27 03:45:46;;;;;;;17.57;4.27;;;9.50;99.90;;;;;;5062986;27;20195;-76
2023/05/27 03:48:33;;;;;;;17.40;4.20;;;9.40;99.90;;;;;;5084387;27;20247;-75
2023/05/27 03:51:21;;;;;;;12.13;4.10;;;9.40;99.90;;;;;;5072410;27;20233;-75
2023/05/27 03:54:10;;;;;;;12.33;3.37;;;9.40;99.90;;;;;;5048722;27;20206;-75
2023/05/27 03:56:57;;;;;;;18.43;3.90;;;9.40;99.90;;;;;;5083431;27;20228;-75
2023/05/27 03:59:44;;;;;;;15.43;4.10;;;9.20;99.90;;;;;;5062401;27;20205;-76
2023/05/27 04:02:31;;;;;;;23.37;4.27;;;9.20;99.90;;;;;;5063986;27;20603;-75
2023/05/27 04:05:19;;;;;;;15.70;3.97;;;9.20;99.90;;;;;;5058855;27;20248;-75
2023/05/27 04:08:06;;;;;;;21.90;4.37;;;9.40;99.90;;;;;;5063622;27;20654;-76
2023/05/27 04:10:55;;;;;;;19.10;4.17;;;9.40;99.90;;;;;;5068316;27;20304;-76
2023/05/27 04:13:42;;;;;;;14.60;4.53;;;9.40;99.90;;;;;;5081115;27;20208;-75
2023/05/27 04:16:30;;;;;;;15.57;4.17;;;9.50;99.90;;;;;;5058385;27;20222;-75
2023/05/27 04:19:18;;;;;;;20.57;3.83;;;9.50;99.90;;;;;;5056173;27;20220;-75
2023/05/27 04:22:05;;;;;;;20.93;4.50;;;9.50;99.90;;;;;;5072045;27;20228;-75
2023/05/27 04:24:53;;;;;;;20.23;4.23;;;9.50;99.90;;;;;;5102696;27;20661;-75
2023/05/27 04:27:42;;;;;;;15.27;4.23;;;9.60;99.90;;;;;;5060825;27;20234;-75
2023/05/27 04:30:29;;;;;;;15.50;4.33;;;9.80;99.90;;;;;;5050258;27;20940;-74
2023/05/27 04:33:16;;;;;;;15.17;4.03;;;9.90;99.90;;;;;;5066327;27;20201;-76
2023/05/27 04:36:04;;;;;;;17.67;3.83;;;10.00;99.90;;;;;;5067444;27;20200;-76
2023/05/27 04:38:51;;;;;;;19.00;4.50;;;10.10;99.90;;;;;;5073728;27;20198;-75
2023/05/27 04:41:39;;;;;;;19.33;4.70;;;10.10;99.90;;;;;;5052589;27;20697;-75
2023/05/27 04:44:28;;;;;;;16.07;4.40;;;10.20;99.90;;;;;;5056188;27;20988;-75
2023/05/27 04:47:15;;;;;;;24.30;4.30;;;10.30;99.90;;;;;;5066981;27;20555;-75
2023/05/27 04:50:02;;;;;;;19.20;4.33;;;10.40;99.90;;;;;;5059364;27;20210;-75
2023/05/27 04:52:49;;;;;;;20.13;4.47;;;10.50;99.90;;;;;;5068087;27;20217;-75
2023/05/27 04:55:38;;;;;;;14.70;4.60;;;10.60;99.90;;;;;;5052456;27;20210;-75
2023/05/27 04:58:26;;;;;;;15.77;4.23;;;10.70;99.90;;;;;;5083417;27;20218;-75
2023/05/27 05:01:17;;;;;;;21.40;4.80;;;10.80;99.90;;;;;;5088393;27;20544;-76
2023/05/27 05:04:12;;;;;;;19.67;4.27;;;11.00;99.90;;;;;;5059760;27;20285;-75
2023/05/27 05:06:59;;;;;;;18.20;4.03;;;11.00;99.90;;;;;;5049732;27;20286;-75
2023/05/27 05:09:46;;;;;;;16.73;4.43;;;11.10;99.90;;;;;;5089672;27;20208;-75
2023/05/27 05:12:35;;;;;;;16.70;3.90;;;11.30;99.90;;;;;;5102290;27;20206;-75
2023/05/27 05:15:22;;;;;;;16.30;4.63;;;11.40;99.90;;;;;;5070974;27;20209;-74
2023/05/27 05:18:11;;;;;;;12.53;4.30;;;11.50;99.90;;;;;;5060712;27;20255;-75
2023/05/27 05:20:58;;;;;;;23.40;5.03;;;11.60;99.90;;;;;;5051770;27;20269;-75
2023/05/27 05:23:46;;;;;;;20.53;4.30;;;11.60;99.90;;;;;;5070684;27;20236;-75
2023/05/27 05:26:34;;;;;;;14.47;4.10;;;11.80;99.90;;;;;;5071928;27;20225;-75
2023/05/27 05:29:21;;;;;;;23.17;4.50;;;11.90;99.90;;;;;;5051468;27;20207;-75
2023/05/27 05:32:10;;;;;;;20.30;4.40;;;12.00;99.90;;;;;;5052426;27;20205;-74
2023/05/27 05:34:59;;;;;;;19.27;4.03;;;12.10;99.90;;;;;;5050622;27;20287;-73
2023/05/27 05:37:46;;;;;;;15.07;4.03;;;12.30;99.90;;;;;;5075111;27;20227;-75
2023/05/27 05:40:34;;;;;;;14.27;4.13;;;12.40;99.90;;;;;;5073357;27;20207;-75
2023/05/27 05:43:21;;;;;;;17.10;4.00;;;12.50;99.90;;;;;;5075884;27;20258;-75
2023/05/27 05:46:08;;;;;;;24.57;5.13;;;12.60;99.90;;;;;;5049397;27;20278;-75
2023/05/27 05:48:55;;;;;;;16.23;3.87;;;12.70;99.90;;;;;;5051879;27;20204;-75
2023/05/27 05:51:44;;;;;;;13.70;4.43;;;12.80;99.90;;;;;;5063055;27;20223;-76
2023/05/27 05:54:31;;;;;;;18.97;4.27;;;12.90;99.90;;;;;;5085336;27;20210;-75
2023/05/27 05:57:18;;;;;;;20.27;4.03;;;12.80;99.90;;;;;;5057958;27;20229;-75
2023/05/27 06:00:08;;;;;;;14.33;4.17;;;12.80;99.90;;;;;;5060015;27;20555;-75
2023/05/27 06:02:55;;;;;;;18.00;4.30;;;12.80;99.90;;;;;;5054905;27;20209;-75
2023/05/27 06:05:42;;;;;;;19.03;4.17;;;13.00;99.90;;;;;;5099078;27;20249;-75
2023/05/27 06:08:31;;;;;;;14.00;3.70;;;13.20;99.90;;;;;;5054947;27;20204;-74
2023/05/27 06:11:18;;;;;;;15.83;3.87;;;13.40;99.90;;;;;;5056400;27;20284;-74
2023/05/27 06:14:06;;;;;;;15.87;3.80;;;13.60;99.90;;;;;;5048522;27;20232;-75
2023/05/27 06:16:54;;;;;;;14.90;3.53;;;13.70;99.90;;;;;;5078136;27;20674;-74
2023/05/27 06:19:41;;;;;;;11.57;3.03;;;13.90;99.90;;;;;;5081939;27;20209;-73
2023/05/27 06:22:28;;;;;;;15.50;3.33;;;14.10;99.90;;;;;;5082873;27;20288;-74
2023/05/27 06:25:16;;;;;;;13.03;3.63;;;14.20;99.90;;;;;;5077917;27;20302;-74
2023/05/27 06:28:04;;;;;;;13.77;3.50;;;14.30;99.90;;;;;;5072988;27;20226;-74
2023/05/27 06:30:51;;;;;;;16.07;3.33;;;14.50;99.90;;;;;;5042799;27;20201;-75
2023/05/27 06:33:38;;;;;;;13.50;3.00;;;14.70;99.90;;;;;;5064133;27;20196;-74
2023/05/27 06:36:25;;;;;;;17.73;3.80;;;14.70;99.90;;;;;;5060222;27;20253;-74
2023/05/27 06:39:12;;;;;;;11.33;3.47;;;14.90;99.90;;;;;;5060175;27;20349;-73
2023/05/27 06:42:01;;;;;;;21.13;3.50;;;15.00;99.90;;;;;;5056395;27;20417;-75
2023/05/27 06:44:48;;;;;;;12.77;3.60;;;15.20;99.90;;;;;;5055335;27;20254;-75
2023/05/27 06:47:35;;;;;;;13.83;3.30;;;15.20;99.90;;;;;;5046505;27;20204;-76
2023/05/27 06:50:23;;;;;;;17.90;3.40;;;15.30;99.90;;;;;;5096276;27;20207;-75
2023/05/27 06:53:11;;;;;;;12.07;3.30;;;15.50;99.90;;;;;;5073984;27;20599;-76
2023/05/27 06:55:58;;;;;;;15.30;3.87;;;15.60;99.90;;;;;;5078214;27;20211;-75
2023/05/27 06:58:47;;;;;;;14.77;3.30;;;15.70;99.90;;;;;;5055773;27;20254;-76
2023/05/27 07:01:34;;;;;;;10.10;3.07;;;15.90;99.90;;;;;;5059578;27;20212;-75
2023/05/27 07:04:21;;;;;;;13.77;3.20;;;16.10;99.90;;;;;;5040198;27;20208;-76
2023/05/27 07:07:09;;;;;;;17.47;3.33;;;16.20;99.90;;;;;;5077877;27;20201;-75
2023/05/27 07:09:56;;;;;;;18.20;4.10;;;16.30;99.90;;;;;;5076507;27;20207;-75
2023/05/27 07:12:43;;;;;;;12.93;3.37;;;16.30;99.90;;;;;;5068547;27;20370;-75
2023/05/27 07:15:32;;;;;;;14.30;3.43;;;16.30;99.90;;;;;;5054134;27;20283;-75
2023/05/27 07:18:19;;;;;;;15.77;3.27;;;16.40;99.90;;;;;;5071489;27;20239;-75
2023/05/27 07:21:06;;;;;;;16.87;3.77;;;16.50;99.90;;;;;;5056534;27;20205;-75
2023/05/27 07:23:53;;;;;;;15.67;3.40;;;16.70;99.90;;;;;;5073753;27;20212;-75
2023/05/27 07:26:41;;;;;;;16.13;3.50;;;16.80;99.90;;;;;;5066119;27;20699;-75
2023/05/27 07:29:28;;;;;;;12.57;3.73;;;16.80;99.90;;;;;;5054966;27;20199;-75
2023/05/27 07:32:16;;;;;;;12.93;3.27;;;16.60;99.90;;;;;;5060111;27;21002;-76
2023/05/27 07:35:04;;;;;;;25.10;3.97;;;16.50;99.90;;;;;;5070804;27;20203;-76
2023/05/27 07:37:51;;;;;;;12.33;3.20;;;16.90;99.90;;;;;;5077678;27;20224;-76
2023/05/27 07:40:39;;;;;;;16.60;4.07;;;17.10;99.90;;;;;;5049787;27;20200;-75
2023/05/27 07:43:26;;;;;;;17.90;3.13;;;17.20;99.90;;;;;;5053983;27;20207;-75
2023/05/27 07:46:13;;;;;;;17.67;3.57;;;17.40;99.90;;;;;;5059599;27;20201;-75
2023/05/27 07:49:02;;;;;;;13.97;3.37;;;17.50;99.90;;;;;;5073203;27;20213;-76
2023/05/27 07:51:49;;;;;;;15.30;3.90;;;17.60;99.90;;;;;;5070964;27;20206;-76
2023/05/27 07:54:36;;;;;;;13.80;3.03;;;17.60;99.90;;;;;;5060067;27;20204;-74
2023/05/27 07:57:27;;;;;;;16.73;3.37;;;17.70;99.20;;;;;;5061342;27;20205;-75
2023/05/27 08:00:14;;;;;;;26.50;3.87;;;18.00;96.70;;;;;;5074962;27;20195;-76
2023/05/27 08:03:02;;;;;;;16.73;3.60;;;18.10;98.20;;;;;;5085908;27;20239;-74
2023/05/27 08:05:50;;;;;;;20.83;3.70;;;18.30;96.40;;;;;;5092411;27;20203;-74
2023/05/27 08:08:38;;;;;;;19.73;3.50;;;18.40;95.40;;;;;;5058875;27;20206;-75
2023/05/27 08:11:25;;;;;;;12.93;3.00;;;18.80;97.00;;;;;;5073598;27;20297;-75
2023/05/27 08:14:12;;;;;;;16.40;3.73;;;18.60;92.50;;;;;;5046432;27;20224;-74
2023/05/27 08:17:00;;;;;;;15.40;3.70;;;18.60;92.80;;;;;;5060706;27;20761;-74
2023/05/27 08:19:47;;;;;;;12.30;3.53;;;18.20;90.40;;;;;;5050644;27;20239;-73
2023/05/27 08:22:35;;;;;;;15.67;3.90;;;18.30;95.60;;;;;;5064362;27;20201;-76
2023/05/27 08:25:23;;;;;;;15.03;3.67;;;18.00;91.50;;;;;;5060450;27;20243;-74
2023/05/27 08:28:11;;;;;;;17.90;3.80;;;18.50;93.30;;;;;;5065925;27;20589;-74
2023/05/27 08:30:58;;;;;;;18.47;3.77;;;18.80;92.10;;;;;;5048321;27;20247;-74
2023/05/27 08:33:45;;;;;;;19.73;3.90;;;19.00;92.90;;;;;;5065736;27;20207;-74
2023/05/27 08:36:32;;;;;;;18.87;3.97;;;19.00;87.50;;;;;;5065364;27;20205;-74
2023/05/27 08:39:21;;;;;;;18.00;3.70;;;19.10;88.10;;;;;;5051644;27;20210;-75
2023/05/27 08:42:08;;;;;;;14.00;3.60;;;18.50;80.10;;;;;;5078044;27;20203;-77
2023/05/27 08:44:56;;;;;;;20.37;4.00;;;18.80;90.40;;;;;;5081581;27;20200;-75
2023/05/27 08:47:43;;;;;;;19.27;4.03;;;19.20;92.10;;;;;;5057576;27;20690;-74
2023/05/27 08:50:30;;;;;;;13.93;3.87;;;19.50;85.00;;;;;;5050727;27;20416;-75
2023/05/27 08:53:17;;;;;;;14.40;3.43;;;19.60;87.70;;;;;;5061346;27;20226;-75
2023/05/27 08:56:07;;;;;;;17.93;3.53;;;19.40;79.10;;;;;;5045736;27;20201;-74
2023/05/27 08:58:54;;;;;;;15.00;3.30;;;19.70;86.40;;;;;;5075333;27;20595;-75
2023/05/27 09:01:42;;;;;;;13.97;3.60;;;19.90;80.40;;;;;;5065551;27;20678;-75
2023/05/27 09:04:29;;;;;;;15.77;3.63;;;19.70;71.20;;;;;;5070705;27;20196;-75
2023/05/27 09:07:17;;;;;;;13.97;3.30;;;19.30;71.60;;;;;;5054663;27;20204;-75
2023/05/27 09:10:06;;;;;;;14.00;3.70;;;19.50;85.80;;;;;;5064161;27;20196;-74
2023/05/27 09:12:55;;;;;;;15.63;3.00;;;19.80;79.40;;;;;;5082256;27;20200;-73
2023/05/27 09:15:42;;;;;;;10.93;3.30;;;20.00;77.60;;;;;;5049523;27;20201;-74
2023/05/27 09:18:30;;;;;;;15.50;3.50;;;20.00;64.30;;;;;;5050100;27;20232;-74
2023/05/27 09:21:17;;;;;;;13.57;3.33;;;19.30;65.40;;;;;;5054805;27;20229;-74
2023/05/27 09:24:05;;;;;;;17.93;3.43;;;19.90;69.10;;;;;;5047350;27;20283;-74
2023/05/27 09:26:52;;;;;;;16.77;3.67;;;20.30;68.60;;;;;;5049726;28;20209;-73
2023/05/27 09:29:42;;;;;;;11.67;3.10;;;20.50;69.40;;;;;;5064077;27;20198;-72
2023/05/27 09:32:31;;;;;;;13.47;3.67;;;20.40;57.60;;;;;;5064448;27;20284;-72
2023/05/27 09:35:19;;;;;;;16.73;3.80;;;20.60;65.90;;;;;;5049147;27;20208;-73
2023/05/27 09:38:06;;;;;;;16.13;3.67;;;20.90;67.00;;;;;;5056032;27;20200;-73
2023/05/27 09:40:54;;;;;;;16.60;3.73;;;21.10;69.20;;;;;;5070454;27;20192;-73
2023/05/27 09:43:41;;;;;;;12.00;3.70;;;21.50;71.70;;;;;;5085579;27;20196;-73
2023/05/27 09:46:31;;;;;;;13.10;3.50;;;21.50;64.10;;;;;;5056552;27;20201;-73
2023/05/27 09:49:18;;;;;;;13.20;3.87;;;21.70;65.80;;;;;;5045113;27;20309;-74
2023/05/27 09:52:06;;;;;;;15.80;3.43;;;21.20;61.30;;;;;;5048146;27;20215;-73
2023/05/27 09:54:53;;;;;;;9.50;3.40;;;21.20;60.10;;;;;;5062648;27;20204;-73
2023/05/27 09:57:40;;;;;;;11.87;3.63;;;21.50;59.30;;;;;;5069211;27;20193;-72
2023/05/27 10:00:28;;;;;;;16.60;3.60;;;21.50;59.30;;;;;;5065936;27;20208;-73
2023/05/27 10:03:17;;;;;;;11.50;3.40;;;21.10;56.90;;;;;;5045736;27;20620;-73
2023/05/27 10:06:05;;;;;;;9.00;2.93;;;21.00;60.80;;;;;;5052622;27;20214;-73
2023/05/27 10:08:52;;;;;;;13.60;3.27;;;21.40;57.90;;;;;;5057897;27;20201;-73
2023/05/27 10:11:39;;;;;;;12.63;3.90;;;21.50;61.00;;;;;;5072198;27;20703;-74
2023/05/27 10:14:27;;;;;;;18.70;3.17;;;20.70;55.10;;;;;;5072324;27;20200;-73
2023/05/27 10:17:14;;;;;;;13.97;2.97;;;21.20;61.40;;;;;;5052089;28;20315;-75
2023/05/27 10:20:04;;;;;;;9.30;3.23;;;21.50;56.30;;;;;;5067250;27;20228;-74
2023/05/27 10:22:51;;;;;;;9.23;3.13;;;22.00;61.00;;;;;;5079463;27;20205;-73
2023/05/27 10:25:38;;;;;;;9.73;2.60;;;22.30;56.80;;;;;;5065973;27;20233;-74
2023/05/27 10:28:29;;;;;;;14.83;3.33;;;22.40;51.70;;;;;;5084547;27;20685;-74
2023/05/27 10:31:17;;;;;;;11.43;3.13;;;22.20;53.30;;;;;;5057895;27;20667;-73
2023/05/27 10:34:05;;;;;;;14.00;3.50;;;22.00;54.90;;;;;;5052896;27;20193;-74
2023/05/27 10:37:00;;;;;;;11.57;3.63;;;22.10;54.60;;;;;;5062342;27;20354;-74
2023/05/27 10:39:55;;;;;;;10.77;3.67;;;22.30;52.40;;;;;;5065417;27;20772;-75
2023/05/27 10:42:42;;;;;;;9.40;3.30;;;22.00;46.40;;;;;;5046020;28;20261;-75
2023/05/27 10:45:35;;;;;;;11.30;3.40;;;21.80;48.10;;;;;;5087582;27;20197;-75
2023/05/27 10:48:22;;;;;;;10.97;3.20;;;21.90;54.10;;;;;;5066229;27;20202;-74
2023/05/27 10:51:10;;;;;;;11.40;4.07;;;22.20;50.80;;;;;;5060123;27;20217;-75
2023/05/27 10:53:58;;;;;;;8.70;3.50;;;22.20;44.40;;;;;;5071380;27;20200;-74
2023/05/27 10:56:50;;;;;;;7.73;2.90;;;22.00;49.40;;;;;;5061720;27;20265;-73
2023/05/27 10:59:42;;;;;;;9.33;3.30;;;21.80;43.80;;;;;;5050677;27;20221;-74
2023/05/27 11:02:31;;;;;;;18.57;3.87;;;22.00;51.90;;;;;;5063236;27;20747;-71
2023/05/27 11:05:20;;;;;;;13.67;3.70;;;22.40;53.60;;;;;;5052054;27;20385;-72
2023/05/27 11:08:12;;;;;;;6.80;3.47;;;22.10;48.90;;;;;;5067731;27;20261;-72
2023/05/27 11:11:02;;;;;;;10.10;3.53;;;22.50;45.10;;;;;;5064486;27;20198;-72
2023/05/27 11:13:49;;;;;;;9.77;3.23;;;22.60;40.70;;;;;;5053361;27;20198;-72
2023/05/27 11:16:36;;;;;;;8.33;3.40;;;22.80;45.50;;;;;;5067328;27;20225;-71
2023/05/27 11:19:23;;;;;;;8.87;3.37;;;22.40;44.70;;;;;;5057939;27;20775;-72
2023/05/27 11:22:11;;;;;;;14.87;3.60;;;21.80;42.30;;;;;;5050824;27;20216;-72
2023/05/27 11:24:58;;;;;;;9.57;3.60;;;21.60;49.60;;;;;;5056739;27;20242;-72
2023/05/27 11:27:47;;;;;;;11.17;3.70;;;22.20;47.70;;;;;;4434975;27;654730;-73
2023/05/27 11:30:34;;;;;;;9.53;3.70;;;22.20;43.30;;;;;;4396665;27;658272;-73
2023/05/27 11:33:31;;;;;;;11.37;3.80;;;22.30;46.10;;;;;;4358875;27;657371;-76
2023/05/27 11:36:19;;;;;;;10.90;4.20;;;22.70;48.70;;;;;;4364382;27;658092;-74
2023/05/27 11:39:08;;;;;;;6.87;3.27;;;22.60;44.20;;;;;;4394524;27;658246;-75
2023/05/27 11:41:55;;;;;;;7.67;3.13;;;22.80;48.20;;;;;;4359594;28;656940;-74
2023/05/27 11:44:51;;;;;;;10.52;3.97;;;23.10;46.20;;;;;;4386378;27;657222;-75
2023/05/27 11:47:42;;;;;;;7.47;4.10;;;23.70;42.50;;;;;;4358459;28;657529;-75
2023/05/27 11:50:29;;;;;;;8.10;3.88;;;23.80;41.90;;;;;;4352583;27;656469;-76
2023/05/27 11:53:17;;;;;;;15.50;4.22;;;23.60;41.60;;;;;;4378249;27;657318;-75
2023/05/27 11:56:05;;;;;;;9.25;4.20;;;23.60;41.80;;;;;;4404279;27;657860;-75
2023/05/27 11:58:52;;;;;;;11.40;3.92;;;23.60;39.70;;;;;;4363854;28;657109;-74
2023/05/27 12:01:42;;;;;;;8.23;3.73;;;23.50;38.80;;;;;;4396076;27;657396;-73
2023/05/27 12:04:29;;;;;;;11.25;3.70;;;23.40;39.10;;;;;;4379907;28;656110;-74
2023/05/27 12:07:16;;;;;;;7.30;3.70;;;23.50;43.30;;;;;;4397936;27;658342;-73
2023/05/27 12:10:04;;;;;;;7.38;3.78;;;23.60;37.60;;;;;;4381979;28;656753;-73
2023/05/27 12:12:51;;;;;;;10.20;3.60;;;23.70;38.90;;;;;;4357163;28;656621;-73
2023/05/27 12:15:38;;;;;;;10.70;3.40;;;23.40;35.10;;;;;;4380239;28;658150;-74
2023/05/27 12:18:27;;;;;;;8.53;3.50;;;23.60;38.10;;;;;;4358526;28;657616;-74
2023/05/27 12:21:16;;;;;;;7.83;3.40;;;23.40;35.20;;;;;;4376739;28;656334;-74
2023/05/27 12:24:03;;;;;;;4.88;2.95;;;23.40;41.30;;;;;;4352003;28;656912;-74
2023/05/27 12:26:50;;;;;;;6.93;3.60;;;23.80;39.60;;;;;;4368283;28;656402;-74
2023/05/27 12:29:38;;;;;;;8.90;3.22;;;23.90;37.40;;;;;;4377345;28;657334;-74
2023/05/27 12:32:25;;;;;;;8.18;3.83;;;24.20;38.00;;;;;;4381875;28;656889;-74
2023/05/27 12:35:14;;;;;;;6.22;2.97;;;24.30;39.00;;;;;;4379062;27;658327;-73
2023/05/27 12:38:01;;;;;;;8.50;3.03;;;24.50;40.40;;;;;;4356997;28;656478;-74
2023/05/27 12:40:49;;;;;;;9.55;3.25;;;24.50;38.80;;;;;;4375970;28;657575;-73
2023/05/27 12:43:36;;;;;;;6.60;3.20;;;24.30;38.70;;;;;;4375879;28;656517;-74
2023/05/27 12:46:23;;;;;;;11.60;2.63;;;24.20;33.30;;;;;;4374906;28;657324;-74
2023/05/27 12:49:10;;;;;;;5.40;2.67;;;24.10;34.10;;;;;;4356841;28;659063;-74
2023/05/27 12:51:59;;;;;;;6.13;2.67;;;24.00;36.40;;;;;;4390722;28;657074;-73
2023/05/27 12:54:47;;;;;;;5.45;2.65;;;24.30;36.80;;;;;;4369551;27;657057;-74
2023/05/27 12:57:34;;;;;;;8.32;2.45;;;24.40;37.20;;;;;;4387161;28;657078;-74
2023/05/27 13:00:21;;;;;;;4.43;2.60;;;23.80;34.40;;;;;;4358441;27;657540;-74
2023/05/27 13:03:08;;;;;;;4.80;2.45;;;24.30;39.80;;;;;;4390194;28;657209;-74
2023/05/27 13:05:56;;;;;;;7.55;2.42;;;24.20;37.50;;;;;;4359980;28;656497;-74
2023/05/27 13:08:44;;;;;;;6.10;3.03;;;24.60;42.90;;;;;;4395994;28;656870;-74
2023/05/27 13:11:31;;;;;;;5.63;2.40;;;24.70;35.50;;;;;;4367603;28;656443;-75
2023/05/27 13:14:19;;;;;;;5.15;2.63;;;24.70;37.60;;;;;;4392591;28;656796;-74
2023/05/27 13:17:06;;;;;;;6.68;2.40;;;24.40;36.10;;;;;;4356108;28;657039;-74
2023/05/27 13:19:53;;;;;;;6.00;2.35;;;24.30;33.10;;;;;;4393674;27;656880;-74
2023/05/27 13:22:41;;;;;;;5.57;2.30;;;24.00;37.00;;;;;;4355793;28;656824;-73
2023/05/27 13:25:29;;;;;;;8.15;2.17;;;24.40;37.50;;;;;;4390129;27;657233;-73
2023/05/27 13:28:17;;;;;;;4.82;2.47;;;24.50;36.40;;;;;;4356597;28;656737;-74
2023/05/27 13:31:04;;;;;;;5.15;2.20;;;24.40;37.50;;;;;;4386262;28;656805;-74
2023/05/27 13:33:51;;;;;;;4.10;2.38;;;24.60;38.00;;;;;;4362445;28;656936;-74
2023/05/27 13:36:39;;;;;;;4.82;2.33;;;24.40;34.00;;;;;;4374659;28;656392;-74
2023/05/27 13:39:26;;;;;;;4.53;2.45;;;24.40;37.50;;;;;;4366252;28;656575;-74
2023/05/27 13:42:15;;;;;;;4.78;2.05;;;24.40;33.70;;;;;;4386367;28;657034;-74
2023/05/27 13:45:02;;;;;;;4.78;2.33;;;24.40;37.90;;;;;;4369631;28;656970;-74
2023/05/27 13:47:50;;;;;;;4.63;2.63;;;24.30;35.80;;;;;;4394191;28;656732;-74
2023/05/27 13:50:37;;;;;;;7.22;2.88;;;24.30;39.50;;;;;;4375029;27;656954;-74
2023/05/27 13:53:25;;;;;;;3.00;2.08;;;24.60;35.40;;;;;;4379488;28;656870;-74
2023/05/27 13:56:12;;;;;;;4.80;2.10;;;24.60;37.40;;;;;;4386987;28;656353;-74
2023/05/27 13:59:03;;;;;;;5.88;2.00;;;24.40;37.00;;;;;;4397401;27;656675;-74
2023/05/27 14:01:51;;;;;;;5.05;2.03;;;24.30;36.90;;;;;;4381416;28;656750;-74
2023/05/27 14:04:38;;;;;;;2.30;1.83;;;24.20;34.80;;;;;;4388010;28;656999;-74
2023/05/27 14:07:25;;;;;;;4.78;2.10;;;24.40;35.70;;;;;;4383286;28;657050;-74
2023/05/27 14:10:13;;;;;;;5.40;2.30;;;24.40;36.20;;;;;;4392305;28;657848;-74
2023/05/27 14:13:01;;;;;;;5.82;2.20;;;24.10;36.30;;;;;;4357640;27;656788;-74
2023/05/27 14:15:50;;;;;;;5.07;2.40;;;24.00;39.10;;;;;;4396646;28;657418;-74
2023/05/27 14:18:37;;;;;;;6.80;2.60;;;24.10;38.10;;;;;;4357875;28;657510;-74
2023/05/27 14:21:24;;;;;;;6.50;2.00;;;24.30;39.00;;;;;;4378598;28;656676;-74
2023/05/27 14:24:12;;;;;;;5.80;2.28;;;24.60;37.30;;;;;;4356630;28;657295;-73
2023/05/27 14:27:01;;;;;;;3.50;2.15;;;24.80;39.60;;;;;;4391318;28;658882;-74